sensor_id;sensor_type;location;lat;lon;timestamp;P1;durP1;ratioP1;P2;durP2;ratioP2
82773;SDS011;72508;45.118;20.728;2023-12-29T00:05:21;102.03;;;46.22;;
82773;SDS011;72508;45.118;20.728;2023-12-29T00:15:23;106.35;;;47.45;;
82773;SDS011;72508;45.118;20.728;2023-12-29T00:25:25;100.45;;;44.88;;
82773;SDS011;72508;45.118;20.728;2023-12-29T00:35:26;80.03;;;38.22;;
82773;SDS011;72508;45.118;20.728;2023-12-29T00:45:28;84.20;;;38.70;;
82773;SDS011;72508;45.118;20.728;2023-12-29T00:55:34;76.25;;;35.55;;
82773;SDS011;72508;45.118;20.728;2023-12-29T01:05:35;76.43;;;37.17;;
82773;SDS011;72508;45.118;20.728;2023-12-29T01:15:37;69.43;;;36.65;;
82773;SDS011;72508;45.118;20.728;2023-12-29T01:25:42;75.53;;;38.38;;
82773;SDS011;72508;45.118;20.728;2023-12-29T01:35:44;77.40;;;37.60;;
82773;SDS011;72508;45.118;20.728;2023-12-29T01:45:46;69.90;;;35.15;;
82773;SDS011;72508;45.118;20.728;2023-12-29T02:05:50;67.65;;;33.17;;
82773;SDS011;72508;45.118;20.728;2023-12-29T02:15:52;78.22;;;37.03;;
82773;SDS011;72508;45.118;20.728;2023-12-29T02:26:01;73.30;;;33.92;;
82773;SDS011;72508;45.118;20.728;2023-12-29T02:36:08;69.60;;;32.08;;
82773;SDS011;72508;45.118;20.728;2023-12-29T02:46:11;61.05;;;29.83;;
82773;SDS011;72508;45.118;20.728;2023-12-29T02:56:13;59.67;;;29.50;;
82773;SDS011;72508;45.118;20.728;2023-12-29T03:06:15;57.08;;;28.55;;
82773;SDS011;72508;45.118;20.728;2023-12-29T03:16:16;55.08;;;25.90;;
82773;SDS011;72508;45.118;20.728;2023-12-29T03:46:22;64.03;;;32.55;;
82773;SDS011;72508;45.118;20.728;2023-12-29T03:56:25;66.57;;;31.98;;
82773;SDS011;72508;45.118;20.728;2023-12-29T04:06:27;64.53;;;31.15;;
82773;SDS011;72508;45.118;20.728;2023-12-29T04:16:29;67.43;;;32.40;;
82773;SDS011;72508;45.118;20.728;2023-12-29T04:26:35;67.35;;;31.33;;
82773;SDS011;72508;45.118;20.728;2023-12-29T04:36:37;66.65;;;32.30;;
82773;SDS011;72508;45.118;20.728;2023-12-29T04:46:38;74.32;;;36.28;;
82773;SDS011;72508;45.118;20.728;2023-12-29T04:56:40;71.30;;;35.53;;
82773;SDS011;72508;45.118;20.728;2023-12-29T05:16:44;205.82;;;56.22;;
82773;SDS011;72508;45.118;20.728;2023-12-29T05:26:45;60.70;;;31.42;;
82773;SDS011;72508;45.118;20.728;2023-12-29T05:46:49;66.93;;;32.45;;
82773;SDS011;72508;45.118;20.728;2023-12-29T05:56:50;78.25;;;37.25;;
82773;SDS011;72508;45.118;20.728;2023-12-29T06:06:52;79.40;;;34.42;;
82773;SDS011;72508;45.118;20.728;2023-12-29T06:16:54;90.68;;;41.13;;
82773;SDS011;72508;45.118;20.728;2023-12-29T06:26:55;158.38;;;61.40;;
82773;SDS011;72508;45.118;20.728;2023-12-29T06:36:57;100.05;;;43.17;;
82773;SDS011;72508;45.118;20.728;2023-12-29T06:46:59;73.63;;;35.25;;
82773;SDS011;72508;45.118;20.728;2023-12-29T06:57:01;88.22;;;37.33;;
82773;SDS011;72508;45.118;20.728;2023-12-29T07:07:02;85.38;;;35.92;;
82773;SDS011;72508;45.118;20.728;2023-12-29T07:17:04;81.97;;;34.83;;
82773;SDS011;72508;45.118;20.728;2023-12-29T07:27:06;78.70;;;34.95;;
82773;SDS011;72508;45.118;20.728;2023-12-29T07:37:08;74.15;;;31.50;;
82773;SDS011;72508;45.118;20.728;2023-12-29T07:47:13;72.75;;;32.55;;
82773;SDS011;72508;45.118;20.728;2023-12-29T07:57:18;124.75;;;45.40;;
82773;SDS011;72508;45.118;20.728;2023-12-29T08:07:25;180.95;;;60.45;;
82773;SDS011;72508;45.118;20.728;2023-12-29T08:17:26;93.65;;;39.13;;
82773;SDS011;72508;45.118;20.728;2023-12-29T08:27:28;99.30;;;42.88;;
82773;SDS011;72508;45.118;20.728;2023-12-29T08:37:30;78.78;;;37.88;;
82773;SDS011;72508;45.118;20.728;2023-12-29T08:47:33;67.13;;;31.50;;
82773;SDS011;72508;45.118;20.728;2023-12-29T08:57:35;58.50;;;27.60;;
82773;SDS011;72508;45.118;20.728;2023-12-29T09:07:36;68.13;;;32.35;;
82773;SDS011;72508;45.118;20.728;2023-12-29T09:17:38;60.22;;;33.00;;
82773;SDS011;72508;45.118;20.728;2023-12-29T09:27:40;58.97;;;30.42;;
82773;SDS011;72508;45.118;20.728;2023-12-29T09:37:42;58.72;;;31.00;;
82773;SDS011;72508;45.118;20.728;2023-12-29T09:47:43;69.70;;;33.30;;
82773;SDS011;72508;45.118;20.728;2023-12-29T09:57:48;56.05;;;28.63;;
82773;SDS011;72508;45.118;20.728;2023-12-29T10:07:52;55.95;;;28.45;;
82773;SDS011;72508;45.118;20.728;2023-12-29T10:17:58;40.28;;;20.75;;
82773;SDS011;72508;45.118;20.728;2023-12-29T10:28:10;52.35;;;28.10;;
82773;SDS011;72508;45.118;20.728;2023-12-29T10:38:14;44.28;;;21.30;;
82773;SDS011;72508;45.118;20.728;2023-12-29T10:48:23;37.00;;;20.10;;
82773;SDS011;72508;45.118;20.728;2023-12-29T10:58:28;36.08;;;17.90;;
82773;SDS011;72508;45.118;20.728;2023-12-29T11:08:31;58.60;;;24.80;;
82773;SDS011;72508;45.118;20.728;2023-12-29T11:18:36;36.05;;;20.20;;
82773;SDS011;72508;45.118;20.728;2023-12-29T11:28:42;36.10;;;19.45;;
82773;SDS011;72508;45.118;20.728;2023-12-29T11:38:48;37.08;;;21.67;;
82773;SDS011;72508;45.118;20.728;2023-12-29T11:49:00;42.45;;;21.10;;
82773;SDS011;72508;45.118;20.728;2023-12-29T11:59:18;42.55;;;23.23;;
82773;SDS011;72508;45.118;20.728;2023-12-29T12:09:23;42.83;;;24.48;;
82773;SDS011;72508;45.118;20.728;2023-12-29T12:19:25;42.25;;;23.65;;
82773;SDS011;72508;45.118;20.728;2023-12-29T12:29:28;44.30;;;25.27;;
82773;SDS011;72508;45.118;20.728;2023-12-29T12:39:40;40.28;;;22.35;;
82773;SDS011;72508;45.118;20.728;2023-12-29T12:49:42;53.70;;;26.63;;
82773;SDS011;72508;45.118;20.728;2023-12-29T12:59:44;63.60;;;29.60;;
82773;SDS011;72508;45.118;20.728;2023-12-29T13:09:46;46.40;;;27.13;;
82773;SDS011;72508;45.118;20.728;2023-12-29T13:19:55;68.65;;;34.65;;
82773;SDS011;72508;45.118;20.728;2023-12-29T13:29:58;62.80;;;34.53;;
82773;SDS011;72508;45.118;20.728;2023-12-29T13:40:36;64.25;;;34.45;;
82773;SDS011;72508;45.118;20.728;2023-12-29T13:50:26;76.47;;;39.58;;
82773;SDS011;72508;45.118;20.728;2023-12-29T14:00:28;65.18;;;33.88;;
82773;SDS011;72508;45.118;20.728;2023-12-29T14:10:30;57.90;;;33.05;;
82773;SDS011;72508;45.118;20.728;2023-12-29T14:20:34;65.43;;;34.70;;
82773;SDS011;72508;45.118;20.728;2023-12-29T14:30:36;65.47;;;33.67;;
82773;SDS011;72508;45.118;20.728;2023-12-29T14:40:38;145.38;;;56.45;;
82773;SDS011;72508;45.118;20.728;2023-12-29T14:50:39;95.85;;;42.60;;
82773;SDS011;72508;45.118;20.728;2023-12-29T15:00:46;126.13;;;56.03;;
82773;SDS011;72508;45.118;20.728;2023-12-29T15:10:48;88.63;;;46.42;;
82773;SDS011;72508;45.118;20.728;2023-12-29T15:20:49;71.75;;;35.83;;
82773;SDS011;72508;45.118;20.728;2023-12-29T15:30:52;86.45;;;39.85;;
82773;SDS011;72508;45.118;20.728;2023-12-29T15:40:54;85.70;;;39.05;;
82773;SDS011;72508;45.118;20.728;2023-12-29T15:50:55;82.55;;;39.30;;
82773;SDS011;72508;45.118;20.728;2023-12-29T16:00:57;73.22;;;34.67;;
82773;SDS011;72508;45.118;20.728;2023-12-29T16:10:59;107.60;;;44.05;;
82773;SDS011;72508;45.118;20.728;2023-12-29T16:21:01;101.57;;;45.75;;
82773;SDS011;72508;45.118;20.728;2023-12-29T16:31:09;80.50;;;35.92;;
82773;SDS011;72508;45.118;20.728;2023-12-29T16:41:11;68.13;;;32.17;;
82773;SDS011;72508;45.118;20.728;2023-12-29T16:51:12;59.08;;;28.20;;
82773;SDS011;72508;45.118;20.728;2023-12-29T17:01:14;52.15;;;27.50;;
82773;SDS011;72508;45.118;20.728;2023-12-29T17:11:15;53.67;;;24.20;;
82773;SDS011;72508;45.118;20.728;2023-12-29T17:21:17;93.35;;;36.95;;
82773;SDS011;72508;45.118;20.728;2023-12-29T17:31:19;63.70;;;30.92;;
82773;SDS011;72508;45.118;20.728;2023-12-29T17:41:21;60.22;;;29.35;;
82773;SDS011;72508;45.118;20.728;2023-12-29T17:51:41;52.40;;;27.02;;
82773;SDS011;72508;45.118;20.728;2023-12-29T18:01:43;58.72;;;26.88;;
82773;SDS011;72508;45.118;20.728;2023-12-29T18:11:44;63.17;;;29.63;;
82773;SDS011;72508;45.118;20.728;2023-12-29T18:21:46;75.70;;;38.60;;
82773;SDS011;72508;45.118;20.728;2023-12-29T18:32:22;72.50;;;40.00;;
82773;SDS011;72508;45.118;20.728;2023-12-29T18:42:24;79.78;;;38.45;;
82773;SDS011;72508;45.118;20.728;2023-12-29T18:52:25;111.80;;;49.28;;
82773;SDS011;72508;45.118;20.728;2023-12-29T19:02:31;74.85;;;37.30;;
82773;SDS011;72508;45.118;20.728;2023-12-29T19:12:32;193.55;;;78.07;;
82773;SDS011;72508;45.118;20.728;2023-12-29T19:22:34;144.70;;;61.53;;
82773;SDS011;72508;45.118;20.728;2023-12-29T19:32:41;126.78;;;54.13;;
82773;SDS011;72508;45.118;20.728;2023-12-29T19:42:53;103.60;;;50.67;;
82773;SDS011;72508;45.118;20.728;2023-12-29T19:52:55;126.55;;;52.35;;
82773;SDS011;72508;45.118;20.728;2023-12-29T20:02:56;93.38;;;45.38;;
82773;SDS011;72508;45.118;20.728;2023-12-29T20:12:58;93.82;;;41.72;;
82773;SDS011;72508;45.118;20.728;2023-12-29T20:23:00;80.00;;;39.58;;
82773;SDS011;72508;45.118;20.728;2023-12-29T20:33:02;97.50;;;43.78;;
82773;SDS011;72508;45.118;20.728;2023-12-29T20:43:04;95.70;;;44.20;;
82773;SDS011;72508;45.118;20.728;2023-12-29T20:53:06;101.18;;;46.05;;
82773;SDS011;72508;45.118;20.728;2023-12-29T21:03:20;104.30;;;44.03;;
82773;SDS011;72508;45.118;20.728;2023-12-29T21:13:22;95.50;;;47.95;;
82773;SDS011;72508;45.118;20.728;2023-12-29T21:23:25;89.90;;;41.28;;
82773;SDS011;72508;45.118;20.728;2023-12-29T21:33:26;87.47;;;41.50;;
82773;SDS011;72508;45.118;20.728;2023-12-29T21:54:24;181.88;;;79.38;;
82773;SDS011;72508;45.118;20.728;2023-12-29T22:04:26;141.05;;;61.65;;
82773;SDS011;72508;45.118;20.728;2023-12-29T22:14:27;127.75;;;54.28;;
82773;SDS011;72508;45.118;20.728;2023-12-29T22:24:29;151.25;;;61.83;;
82773;SDS011;72508;45.118;20.728;2023-12-29T22:34:31;153.30;;;59.05;;
82773;SDS011;72508;45.118;20.728;2023-12-29T22:44:32;184.43;;;64.15;;
82773;SDS011;72508;45.118;20.728;2023-12-29T22:54:37;151.25;;;58.95;;
82773;SDS011;72508;45.118;20.728;2023-12-29T23:04:39;151.25;;;56.42;;
82773;SDS011;72508;45.118;20.728;2023-12-29T23:14:40;141.75;;;52.45;;
82773;SDS011;72508;45.118;20.728;2023-12-29T23:25:02;142.73;;;55.30;;
82773;SDS011;72508;45.118;20.728;2023-12-29T23:35:04;132.82;;;49.63;;
82773;SDS011;72508;45.118;20.728;2023-12-29T23:45:26;129.38;;;48.25;;
82773;SDS011;72508;45.118;20.728;2023-12-29T23:55:49;92.45;;;42.55;;
